Lone Star, Idaho
Current Conditions -  °F | °C
As of 8:53 AM on Thursday 23 Oct 2014 (Local Time) from KJER Reporting Station
Few Clouds Few Clouds  
Wind Chill: 50°   Ceiling: Unl
Heat Index: 50°   Visibility: 10mi
Dew Point: 29°   Wind: 7mph
Humidity: 44%   Direction: 100°E
Pressure: 30.1"   Gusts: NA
Location:  42.9609°N, 114.301°W
Report Text: KJER 231453Z AUTO 10006KT 10SM FEW120 10/M02 A3010 RMK AO2 SLP181 T01001017 53016
Loading
Personal Weather Stations






























Interactive Weather Map
Tropical Storm Tracking
New forecast layout! Learn more

10-Day Weather Forecast

Advertisements
Track Severe Weather on mobile